sensor_id;sensor_type;location;lat;lon;timestamp;pressure;altitude;pressure_sealevel;temperature;humidity
62895;BME280;49204;44.916;37.998;2023-03-04T00:00:28;101214.63;;;3.90;53.91
62895;BME280;49204;44.916;37.998;2023-03-04T00:02:55;101215.49;;;3.89;53.73
62895;BME280;49204;44.916;37.998;2023-03-04T00:05:23;101213.77;;;3.86;53.95
62895;BME280;49204;44.916;37.998;2023-03-04T00:07:51;101212.47;;;3.81;53.81
62895;BME280;49204;44.916;37.998;2023-03-04T00:10:19;101207.71;;;3.79;53.67
62895;BME280;49204;44.916;37.998;2023-03-04T00:12:46;101204.69;;;3.78;53.59
62895;BME280;49204;44.916;37.998;2023-03-04T00:15:14;101198.18;;;3.75;53.68
62895;BME280;49204;44.916;37.998;2023-03-04T00:17:42;101196.47;;;3.68;54.06
62895;BME280;49204;44.916;37.998;2023-03-04T00:20:12;101197.34;;;3.59;54.24
62895;BME280;49204;44.916;37.998;2023-03-04T00:22:39;101200.84;;;3.54;54.82
62895;BME280;49204;44.916;37.998;2023-03-04T00:25:07;101200.42;;;3.46;54.73
62895;BME280;49204;44.916;37.998;2023-03-04T00:27:35;101197.84;;;3.40;54.89
62895;BME280;49204;44.916;37.998;2023-03-04T00:30:04;101195.27;;;3.34;55.94
62895;BME280;49204;44.916;37.998;2023-03-04T00:32:32;101195.70;;;3.29;56.50
62895;BME280;49204;44.916;37.998;2023-03-04T00:34:59;101199.60;;;3.29;55.94
62895;BME280;49204;44.916;37.998;2023-03-04T00:37:27;101200.46;;;3.29;55.79
62895;BME280;49204;44.916;37.998;2023-03-04T00:39:55;101195.70;;;3.27;55.66
62895;BME280;49204;44.916;37.998;2023-03-04T00:42:23;101192.67;;;3.25;55.46
62895;BME280;49204;44.916;37.998;2023-03-04T00:44:50;101196.98;;;3.24;55.50
62895;BME280;49204;44.916;37.998;2023-03-04T00:47:18;101195.27;;;3.22;55.77
62895;BME280;49204;44.916;37.998;2023-03-04T00:49:46;101196.13;;;3.24;56.09
62895;BME280;49204;44.916;37.998;2023-03-04T00:52:14;101197.88;;;3.26;56.23
62895;BME280;49204;44.916;37.998;2023-03-04T00:54:42;101197.44;;;3.24;56.47
62895;BME280;49204;44.916;37.998;2023-03-04T00:57:10;101197.44;;;3.24;56.93
62895;BME280;49204;44.916;37.998;2023-03-04T00:59:38;101199.19;;;3.25;57.38
62895;BME280;49204;44.916;37.998;2023-03-04T01:02:06;101196.14;;;3.28;57.23
62895;BME280;49204;44.916;37.998;2023-03-04T01:04:34;101206.53;;;3.33;57.08
62895;BME280;49204;44.916;37.998;2023-03-04T01:07:02;101192.22;;;3.38;57.04
62895;BME280;49204;44.916;37.998;2023-03-04T01:09:30;101194.35;;;3.43;56.69
62895;BME280;49204;44.916;37.998;2023-03-04T01:11:57;101196.95;;;3.44;57.12
62895;BME280;49204;44.916;37.998;2023-03-04T01:14:25;101187.85;;;3.51;56.63
62895;BME280;49204;44.916;37.998;2023-03-04T01:16:53;101182.20;;;3.53;56.64
62895;BME280;49204;44.916;37.998;2023-03-04T01:19:21;101180.87;;;3.56;56.61
62895;BME280;49204;44.916;37.998;2023-03-04T01:21:49;101183.92;;;3.60;56.45
62895;BME280;49204;44.916;37.998;2023-03-04T01:24:16;101182.17;;;3.63;56.31
62895;BME280;49204;44.916;37.998;2023-03-04T01:26:44;101185.19;;;3.66;56.20
62895;BME280;49204;44.916;37.998;2023-03-04T01:29:12;101181.28;;;3.69;56.20
62895;BME280;49204;44.916;37.998;2023-03-04T01:31:39;101177.79;;;3.72;56.01
62895;BME280;49204;44.916;37.998;2023-03-04T01:34:07;101182.55;;;3.75;55.88
62895;BME280;49204;44.916;37.998;2023-03-04T01:36:35;101186.02;;;3.79;55.83
62895;BME280;49204;44.916;37.998;2023-03-04T01:39:03;101173.44;;;3.78;55.89
62895;BME280;49204;44.916;37.998;2023-03-04T01:41:31;101182.07;;;3.83;55.81
62895;BME280;49204;44.916;37.998;2023-03-04T01:43:59;101184.27;;;3.85;55.90
62895;BME280;49204;44.916;37.998;2023-03-04T01:46:28;101181.17;;;3.89;55.63
62895;BME280;49204;44.916;37.998;2023-03-04T01:48:57;101179.87;;;3.91;55.55
62895;BME280;49204;44.916;37.998;2023-03-04T01:51:25;101182.03;;;3.93;55.45
62895;BME280;49204;44.916;37.998;2023-03-04T01:53:54;101182.03;;;3.94;55.34
62895;BME280;49204;44.916;37.998;2023-03-04T01:56:23;101182.92;;;3.95;55.39
62895;BME280;49204;44.916;37.998;2023-03-04T01:59:07;101176.81;;;3.96;55.47
62895;BME280;49204;44.916;37.998;2023-03-04T02:01:35;101183.33;;;3.99;55.38
62895;BME280;49204;44.916;37.998;2023-03-04T02:04:04;101184.17;;;4.02;55.28
62895;BME280;49204;44.916;37.998;2023-03-04T02:06:39;101182.84;;;4.07;55.31
62895;BME280;49204;44.916;37.998;2023-03-04T02:09:03;101182.39;;;4.08;55.27
62895;BME280;49204;44.916;37.998;2023-03-04T02:11:31;101185.45;;;4.05;55.34
62895;BME280;49204;44.916;37.998;2023-03-04T02:13:59;101188.05;;;4.07;55.42
62895;BME280;49204;44.916;37.998;2023-03-04T02:16:26;101190.66;;;4.07;55.32
62895;BME280;49204;44.916;37.998;2023-03-04T02:18:54;101195.01;;;4.10;55.26
62895;BME280;49204;44.916;37.998;2023-03-04T02:21:29;101185.84;;;4.11;55.23
62895;BME280;49204;44.916;37.998;2023-03-04T02:26:45;101186.29;;;4.12;55.14
62895;BME280;49204;44.916;37.998;2023-03-04T02:29:14;101184.98;;;4.14;55.12
62895;BME280;49204;44.916;37.998;2023-03-04T02:31:43;101188.86;;;4.18;54.99
62895;BME280;49204;44.916;37.998;2023-03-04T02:34:12;101189.30;;;4.21;54.87
62895;BME280;49204;44.916;37.998;2023-03-04T02:36:40;101192.75;;;4.24;54.77
62895;BME280;49204;44.916;37.998;2023-03-04T02:41:49;101197.06;;;4.32;54.60
62895;BME280;49204;44.916;37.998;2023-03-04T02:44:19;101193.11;;;4.35;54.53
62895;BME280;49204;44.916;37.998;2023-03-04T02:46:48;101197.02;;;4.36;54.43
62895;BME280;49204;44.916;37.998;2023-03-04T02:49:17;101200.03;;;4.39;54.46
62895;BME280;49204;44.916;37.998;2023-03-04T02:51:45;101200.47;;;4.38;54.48
62895;BME280;49204;44.916;37.998;2023-03-04T02:54:17;101203.13;;;4.34;54.67
62895;BME280;49204;44.916;37.998;2023-03-04T02:56:49;101208.34;;;4.34;54.61
62895;BME280;49204;44.916;37.998;2023-03-04T02:59:20;101215.31;;;4.32;54.61
62895;BME280;49204;44.916;37.998;2023-03-04T03:01:48;101214.01;;;4.30;55.20
62895;BME280;49204;44.916;37.998;2023-03-04T03:04:16;101214.06;;;4.19;55.85
62895;BME280;49204;44.916;37.998;2023-03-04T03:06:45;101221.03;;;4.14;56.10
62895;BME280;49204;44.916;37.998;2023-03-04T03:09:14;101219.31;;;4.13;56.02
62895;BME280;49204;44.916;37.998;2023-03-04T03:11:43;101219.31;;;4.13;55.93
62895;BME280;49204;44.916;37.998;2023-03-04T03:14:11;101223.64;;;4.11;56.30
62895;BME280;49204;44.916;37.998;2023-03-04T03:16:39;101227.17;;;4.04;57.26
62895;BME280;49204;44.916;37.998;2023-03-04T03:19:07;101225.88;;;4.01;57.19
62895;BME280;49204;44.916;37.998;2023-03-04T03:21:35;101228.92;;;3.99;58.53
62895;BME280;49204;44.916;37.998;2023-03-04T03:24:03;101225.88;;;3.98;58.69
62895;BME280;49204;44.916;37.998;2023-03-04T03:26:31;101233.25;;;4.00;60.30
62895;BME280;49204;44.916;37.998;2023-03-04T03:28:59;101234.14;;;4.00;60.00
62895;BME280;49204;44.916;37.998;2023-03-04T03:31:27;101232.39;;;4.01;60.00
62895;BME280;49204;44.916;37.998;2023-03-04T03:33:55;101239.31;;;4.02;60.32
62895;BME280;49204;44.916;37.998;2023-03-04T03:36:23;101241.92;;;4.02;60.65
62895;BME280;49204;44.916;37.998;2023-03-04T03:38:50;101246.27;;;4.03;59.92
62895;BME280;49204;44.916;37.998;2023-03-04T03:41:18;101253.20;;;4.05;59.65
62895;BME280;49204;44.916;37.998;2023-03-04T03:43:46;101255.36;;;4.09;59.30
62895;BME280;49204;44.916;37.998;2023-03-04T03:46:13;101256.66;;;4.11;59.48
62895;BME280;49204;44.916;37.998;2023-03-04T03:48:42;101251.45;;;4.14;59.84
62895;BME280;49204;44.916;37.998;2023-03-04T03:51:10;101259.67;;;4.15;60.39
62895;BME280;49204;44.916;37.998;2023-03-04T03:53:37;101257.92;;;4.17;60.35
62895;BME280;49204;44.916;37.998;2023-03-04T03:56:05;101259.67;;;4.16;61.81
62895;BME280;49204;44.916;37.998;2023-03-04T03:58:33;101267.50;;;4.16;61.20
62895;BME280;49204;44.916;37.998;2023-03-04T04:01:01;101269.24;;;4.19;60.76
62895;BME280;49204;44.916;37.998;2023-03-04T04:03:29;101268.80;;;4.19;61.26
62895;BME280;49204;44.916;37.998;2023-03-04T04:05:56;101268.80;;;4.19;62.40
62895;BME280;49204;44.916;37.998;2023-03-04T04:08:24;101274.02;;;4.19;62.49
62895;BME280;49204;44.916;37.998;2023-03-04T04:10:52;101273.16;;;4.19;62.32
62895;BME280;49204;44.916;37.998;2023-03-04T04:13:20;101282.28;;;4.17;62.76
62895;BME280;49204;44.916;37.998;2023-03-04T04:15:47;101283.58;;;4.17;62.50
62895;BME280;49204;44.916;37.998;2023-03-04T04:18:17;101277.92;;;4.19;62.07
62895;BME280;49204;44.916;37.998;2023-03-04T04:20:45;101286.59;;;4.21;62.33
62895;BME280;49204;44.916;37.998;2023-03-04T04:23:12;101284.44;;;4.19;62.77
62895;BME280;49204;44.916;37.998;2023-03-04T04:25:40;101289.65;;;4.18;63.93
62895;BME280;49204;44.916;37.998;2023-03-04T04:28:08;101287.94;;;4.15;64.24
62895;BME280;49204;44.916;37.998;2023-03-04T04:30:35;101294.45;;;4.12;64.71
62895;BME280;49204;44.916;37.998;2023-03-04T04:33:04;101300.97;;;4.08;65.36
62895;BME280;49204;44.916;37.998;2023-03-04T04:35:32;101294.48;;;4.03;65.60
62895;BME280;49204;44.916;37.998;2023-03-04T04:38:01;101298.84;;;4.01;65.55
62895;BME280;49204;44.916;37.998;2023-03-04T04:40:28;101297.09;;;3.98;65.93
62895;BME280;49204;44.916;37.998;2023-03-04T04:42:56;101295.38;;;3.96;66.44
62895;BME280;49204;44.916;37.998;2023-03-04T04:45:24;101303.19;;;3.99;66.75
62895;BME280;49204;44.916;37.998;2023-03-04T04:47:52;101297.98;;;4.00;66.46
62895;BME280;49204;44.916;37.998;2023-03-04T04:50:21;101298.84;;;4.02;66.31
62895;BME280;49204;44.916;37.998;2023-03-04T04:52:49;101297.05;;;4.08;66.59
62895;BME280;49204;44.916;37.998;2023-03-04T04:55:17;101297.50;;;4.07;66.84
62895;BME280;49204;44.916;37.998;2023-03-04T04:57:44;101304.02;;;4.13;66.32
62895;BME280;49204;44.916;37.998;2023-03-04T05:00:12;101295.72;;;4.18;67.19
62895;BME280;49204;44.916;37.998;2023-03-04T05:02:40;101300.05;;;4.25;67.00
62895;BME280;49204;44.916;37.998;2023-03-04T05:05:08;101299.15;;;4.33;67.04
62895;BME280;49204;44.916;37.998;2023-03-04T05:07:36;101300.86;;;4.38;68.00
62895;BME280;49204;44.916;37.998;2023-03-04T05:10:04;101303.02;;;4.43;68.03
62895;BME280;49204;44.916;37.998;2023-03-04T05:12:31;101301.67;;;4.48;67.96
62895;BME280;49204;44.916;37.998;2023-03-04T05:14:59;101312.50;;;4.57;67.76
62895;BME280;49204;44.916;37.998;2023-03-04T05:17:27;101312.91;;;4.62;68.57
62895;BME280;49204;44.916;37.998;2023-03-04T05:19:55;101311.59;;;4.66;69.40
62895;BME280;49204;44.916;37.998;2023-03-04T05:22:22;101308.09;;;4.67;68.54
62895;BME280;49204;44.916;37.998;2023-03-04T05:24:50;101315.51;;;4.69;68.23
62895;BME280;49204;44.916;37.998;2023-03-04T05:27:18;101315.02;;;4.75;67.77
62895;BME280;49204;44.916;37.998;2023-03-04T05:29:46;101324.13;;;4.81;67.33
62895;BME280;49204;44.916;37.998;2023-03-04T05:32:13;101325.39;;;4.86;67.97
62895;BME280;49204;44.916;37.998;2023-03-04T05:34:41;101329.75;;;4.87;68.03
62895;BME280;49204;44.916;37.998;2023-03-04T05:37:09;101337.13;;;4.86;68.91
62895;BME280;49204;44.916;37.998;2023-03-04T05:39:36;101344.11;;;4.84;69.22
62895;BME280;49204;44.916;37.998;2023-03-04T05:42:04;101343.25;;;4.85;69.33
62895;BME280;49204;44.916;37.998;2023-03-04T05:44:32;101344.52;;;4.87;68.65
62895;BME280;49204;44.916;37.998;2023-03-04T05:47:00;101344.95;;;4.89;68.24
62895;BME280;49204;44.916;37.998;2023-03-04T05:49:27;101344.91;;;4.92;68.20
62895;BME280;49204;44.916;37.998;2023-03-04T05:51:55;101345.37;;;4.90;68.96
62895;BME280;49204;44.916;37.998;2023-03-04T05:54:23;101347.53;;;4.92;68.55
62895;BME280;49204;44.916;37.998;2023-03-04T05:56:51;101355.80;;;4.96;68.49
62895;BME280;49204;44.916;37.998;2023-03-04T05:59:19;101356.64;;;5.00;68.70
62895;BME280;49204;44.916;37.998;2023-03-04T06:01:46;101360.52;;;5.05;68.56
62895;BME280;49204;44.916;37.998;2023-03-04T06:04:19;101361.77;;;5.11;68.73
62895;BME280;49204;44.916;37.998;2023-03-04T06:06:47;101363.50;;;5.15;68.62
62895;BME280;49204;44.916;37.998;2023-03-04T06:09:15;101368.28;;;5.14;68.80
62895;BME280;49204;44.916;37.998;2023-03-04T06:11:47;101363.91;;;5.16;69.01
62895;BME280;49204;44.916;37.998;2023-03-04T06:14:15;101363.84;;;5.27;69.58
62895;BME280;49204;44.916;37.998;2023-03-04T06:16:43;101365.48;;;5.38;68.63
62895;BME280;49204;44.916;37.998;2023-03-04T06:19:10;101365.39;;;5.54;68.94
62895;BME280;49204;44.916;37.998;2023-03-04T06:21:38;101361.33;;;5.69;68.12
62895;BME280;49204;44.916;37.998;2023-03-04T06:24:06;101362.53;;;5.82;68.19
62895;BME280;49204;44.916;37.998;2023-03-04T06:26:34;101351.17;;;5.84;68.71
62895;BME280;49204;44.916;37.998;2023-03-04T06:29:01;101358.61;;;5.83;69.15
62895;BME280;49204;44.916;37.998;2023-03-04T06:31:29;101358.53;;;5.89;68.91
62895;BME280;49204;44.916;37.998;2023-03-04T06:33:57;101360.64;;;5.99;69.75
62895;BME280;49204;44.916;37.998;2023-03-04T06:36:24;101356.16;;;6.10;69.14
62895;BME280;49204;44.916;37.998;2023-03-04T06:38:52;101363.50;;;6.18;68.60
62895;BME280;49204;44.916;37.998;2023-03-04T06:41:20;101364.25;;;6.30;68.18
62895;BME280;49204;44.916;37.998;2023-03-04T06:43:47;101363.70;;;6.38;67.87
62895;BME280;49204;44.916;37.998;2023-03-04T06:46:15;101360.11;;;6.48;67.65
62895;BME280;49204;44.916;37.998;2023-03-04T06:48:43;101362.63;;;6.56;67.52
62895;BME280;49204;44.916;37.998;2023-03-04T06:51:11;101365.14;;;6.64;67.19
62895;BME280;49204;44.916;37.998;2023-03-04T06:53:39;101363.70;;;6.73;67.03
62895;BME280;49204;44.916;37.998;2023-03-04T06:56:07;101361.41;;;6.83;67.07
62895;BME280;49204;44.916;37.998;2023-03-04T06:58:35;101363.42;;;6.94;66.75
62895;BME280;49204;44.916;37.998;2023-03-04T07:01:10;101362.89;;;7.03;66.39
62895;BME280;49204;44.916;37.998;2023-03-04T07:03:38;101364.11;;;7.09;66.14
62895;BME280;49204;44.916;37.998;2023-03-04T07:06:08;101367.20;;;7.05;66.00
62895;BME280;49204;44.916;37.998;2023-03-04T07:08:36;101368.56;;;7.01;65.89
62895;BME280;49204;44.916;37.998;2023-03-04T07:11:04;101360.71;;;7.01;65.79
62895;BME280;49204;44.916;37.998;2023-03-04T07:13:32;101366.44;;;6.97;65.73
62895;BME280;49204;44.916;37.998;2023-03-04T07:16:01;101361.31;;;6.89;65.85
62895;BME280;49204;44.916;37.998;2023-03-04T07:18:29;101365.36;;;6.80;66.17
62895;BME280;49204;44.916;37.998;2023-03-04T07:20:57;101362.49;;;6.67;66.76
62895;BME280;49204;44.916;37.998;2023-03-04T07:23:24;101362.68;;;6.53;67.77
62895;BME280;49204;44.916;37.998;2023-03-04T07:25:52;101359.19;;;6.51;67.84
62895;BME280;49204;44.916;37.998;2023-03-04T07:28:20;101366.06;;;6.60;68.28
62895;BME280;49204;44.916;37.998;2023-03-04T07:30:48;101364.66;;;6.67;68.15
62895;BME280;49204;44.916;37.998;2023-03-04T07:33:15;101366.78;;;6.72;68.17
62895;BME280;49204;44.916;37.998;2023-03-04T07:35:43;101360.56;;;6.81;68.34
62895;BME280;49204;44.916;37.998;2023-03-04T07:38:11;101367.52;;;6.82;68.73
62895;BME280;49204;44.916;37.998;2023-03-04T07:40:38;101362.38;;;6.74;70.37
62895;BME280;49204;44.916;37.998;2023-03-04T07:43:06;101366.04;;;6.63;69.98
62895;BME280;49204;44.916;37.998;2023-03-04T07:45:34;101368.28;;;6.59;70.25
62895;BME280;49204;44.916;37.998;2023-03-04T07:48:03;101366.08;;;6.58;70.03
62895;BME280;49204;44.916;37.998;2023-03-04T07:50:31;101371.21;;;6.66;70.08
62895;BME280;49204;44.916;37.998;2023-03-04T07:52:59;101375.08;;;6.72;70.12
62895;BME280;49204;44.916;37.998;2023-03-04T07:55:26;101370.25;;;6.73;70.71
62895;BME280;49204;44.916;37.998;2023-03-04T07:57:56;101370.13;;;6.82;70.02
62895;BME280;49204;44.916;37.998;2023-03-04T08:00:24;101368.66;;;6.94;69.65
62895;BME280;49204;44.916;37.998;2023-03-04T08:02:52;101367.26;;;7.01;69.74
62895;BME280;49204;44.916;37.998;2023-03-04T08:05:19;101365.08;;;7.02;69.53
62895;BME280;49204;44.916;37.998;2023-03-04T08:07:47;101362.89;;;7.03;69.33
62895;BME280;49204;44.916;37.998;2023-03-04T08:10:15;101363.31;;;7.02;69.29
62895;BME280;49204;44.916;37.998;2023-03-04T08:12:43;101355.44;;;7.04;69.42
62895;BME280;49204;44.916;37.998;2023-03-04T08:15:10;101369.86;;;7.02;69.08
62895;BME280;49204;44.916;37.998;2023-03-04T08:17:38;101368.55;;;7.02;68.99
62895;BME280;49204;44.916;37.998;2023-03-04T08:20:06;101372.49;;;7.01;68.89
62895;BME280;49204;44.916;37.998;2023-03-04T08:22:34;101374.29;;;6.97;68.95
62895;BME280;49204;44.916;37.998;2023-03-04T08:25:02;101374.73;;;6.96;68.80
62895;BME280;49204;44.916;37.998;2023-03-04T08:27:30;101373.52;;;6.92;68.95
62895;BME280;49204;44.916;37.998;2023-03-04T08:29:58;101365.31;;;6.85;69.15
62895;BME280;49204;44.916;37.998;2023-03-04T08:32:25;101364.05;;;6.80;69.94
62895;BME280;49204;44.916;37.998;2023-03-04T08:34:53;101371.16;;;6.72;70.56
62895;BME280;49204;44.916;37.998;2023-03-04T08:37:22;101363.34;;;6.67;70.81
62895;BME280;49204;44.916;37.998;2023-03-04T08:39:50;101370.81;;;6.65;71.22
62895;BME280;49204;44.916;37.998;2023-03-04T08:42:17;101365.98;;;6.66;71.18
62895;BME280;49204;44.916;37.998;2023-03-04T08:44:45;101361.16;;;6.70;71.15
62895;BME280;49204;44.916;37.998;2023-03-04T08:47:13;101359.78;;;6.73;71.45
62895;BME280;49204;44.916;37.998;2023-03-04T08:49:41;101360.59;;;6.78;71.61
62895;BME280;49204;44.916;37.998;2023-03-04T08:52:08;101357.95;;;6.81;71.62
62895;BME280;49204;44.916;37.998;2023-03-04T08:54:36;101362.20;;;6.90;71.65
62895;BME280;49204;44.916;37.998;2023-03-04T08:57:04;101360.27;;;7.03;71.39
62895;BME280;49204;44.916;37.998;2023-03-04T08:59:33;101367.05;;;7.16;70.91
62895;BME280;49204;44.916;37.998;2023-03-04T09:02:01;101361.27;;;7.23;71.16
62895;BME280;49204;44.916;37.998;2023-03-04T09:04:29;101363.79;;;7.30;71.22
62895;BME280;49204;44.916;37.998;2023-03-04T09:06:56;101367.18;;;7.35;71.21
62895;BME280;49204;44.916;37.998;2023-03-04T09:09:24;101355.37;;;7.37;71.10
62895;BME280;49204;44.916;37.998;2023-03-04T09:11:52;101368.44;;;7.40;70.98
62895;BME280;49204;44.916;37.998;2023-03-04T09:14:20;101359.61;;;7.46;70.92
62895;BME280;49204;44.916;37.998;2023-03-04T09:16:47;101354.25;;;7.52;70.73
62895;BME280;49204;44.916;37.998;2023-03-04T09:19:15;101355.52;;;7.55;70.48
62895;BME280;49204;44.916;37.998;2023-03-04T09:21:43;101352.79;;;7.61;70.26
62895;BME280;49204;44.916;37.998;2023-03-04T09:24:11;101357.99;;;7.64;70.02
62895;BME280;49204;44.916;37.998;2023-03-04T09:26:38;101349.70;;;7.63;69.78
62895;BME280;49204;44.916;37.998;2023-03-04T09:29:06;101348.38;;;7.63;69.76
62895;BME280;49204;44.916;37.998;2023-03-04T09:31:34;101343.05;;;7.69;69.86
62895;BME280;49204;44.916;37.998;2023-03-04T09:34:02;101348.66;;;7.73;69.72
62895;BME280;49204;44.916;37.998;2023-03-04T09:36:29;101334.20;;;7.77;69.50
62895;BME280;49204;44.916;37.998;2023-03-04T09:39:05;101343.44;;;7.72;69.46
62895;BME280;49204;44.916;37.998;2023-03-04T09:41:35;101338.29;;;7.67;69.43
62895;BME280;49204;44.916;37.998;2023-03-04T09:44:04;101347.62;;;7.58;69.53
62895;BME280;49204;44.916;37.998;2023-03-04T09:46:32;101346.31;;;7.58;69.43
62895;BME280;49204;44.916;37.998;2023-03-04T09:49:00;101338.45;;;7.58;69.74
62895;BME280;49204;44.916;37.998;2023-03-04T09:51:35;101340.59;;;7.60;69.59
62895;BME280;49204;44.916;37.998;2023-03-04T09:54:07;101343.64;;;7.60;69.57
62895;BME280;49204;44.916;37.998;2023-03-04T09:56:37;101334.20;;;7.51;69.91
62895;BME280;49204;44.916;37.998;2023-03-04T10:01:48;101337.22;;;7.25;70.99
62895;BME280;49204;44.916;37.998;2023-03-04T10:04:24;101333.39;;;7.19;71.23
62895;BME280;49204;44.916;37.998;2023-03-04T10:06:48;101333.98;;;7.09;71.88
62895;BME280;49204;44.916;37.998;2023-03-04T10:09:23;101327.91;;;7.07;72.05
62895;BME280;49204;44.916;37.998;2023-03-04T10:11:48;101319.25;;;7.02;72.45
62895;BME280;49204;44.916;37.998;2023-03-04T10:16:51;101313.41;;;7.13;72.62
62895;BME280;49204;44.916;37.998;2023-03-04T10:21:53;101294.09;;;7.71;72.54
62895;BME280;49204;44.916;37.998;2023-03-04T10:24:21;101288.14;;;7.86;71.91
62895;BME280;49204;44.916;37.998;2023-03-04T10:26:51;101281.63;;;8.05;71.56
62895;BME280;49204;44.916;37.998;2023-03-04T10:29:20;101279.55;;;8.23;71.11
62895;BME280;49204;44.916;37.998;2023-03-04T10:31:50;101277.31;;;8.46;70.66
62895;BME280;49204;44.916;37.998;2023-03-04T10:34:19;101275.14;;;8.85;70.11
62895;BME280;49204;44.916;37.998;2023-03-04T10:39:30;101255.20;;;9.32;68.82
62895;BME280;49204;44.916;37.998;2023-03-04T10:41:59;101254.62;;;9.53;68.63
62895;BME280;49204;44.916;37.998;2023-03-04T10:44:27;101251.09;;;9.87;68.09
62895;BME280;49204;44.916;37.998;2023-03-04T10:46:56;101242.38;;;9.85;67.55
62895;BME280;49204;44.916;37.998;2023-03-04T10:49:24;101237.83;;;9.90;67.51
62895;BME280;49204;44.916;37.998;2023-03-04T10:56:58;101233.30;;;10.85;66.07
62895;BME280;49204;44.916;37.998;2023-03-04T10:59:30;101227.45;;;11.15;65.50
62895;BME280;49204;44.916;37.998;2023-03-04T11:01:58;101211.19;;;12.14;63.53
62895;BME280;49204;44.916;37.998;2023-03-04T11:04:30;101214.03;;;12.44;62.49
62895;BME280;49204;44.916;37.998;2023-03-04T11:06:55;101204.22;;;12.58;61.70
62895;BME280;49204;44.916;37.998;2023-03-04T11:09:24;101196.76;;;12.79;61.24
62895;BME280;49204;44.916;37.998;2023-03-04T11:11:53;101201.42;;;13.05;60.63
62895;BME280;49204;44.916;37.998;2023-03-04T11:14:23;101198.42;;;13.35;60.09
62895;BME280;49204;44.916;37.998;2023-03-04T11:16:52;101194.41;;;13.46;58.86
62895;BME280;49204;44.916;37.998;2023-03-04T11:19:21;101200.47;;;13.28;58.65
62895;BME280;49204;44.916;37.998;2023-03-04T11:21:50;101202.34;;;13.46;58.25
62895;BME280;49204;44.916;37.998;2023-03-04T11:24:20;101196.83;;;13.41;57.99
62895;BME280;49204;44.916;37.998;2023-03-04T11:27:35;101199.64;;;12.95;58.35
62895;BME280;49204;44.916;37.998;2023-03-04T11:31:59;101207.50;;;11.95;60.32
62895;BME280;49204;44.916;37.998;2023-03-04T11:34:29;101200.32;;;11.75;61.04
62895;BME280;49204;44.916;37.998;2023-03-04T11:39:43;101196.93;;;11.34;62.12
62895;BME280;49204;44.916;37.998;2023-03-04T11:42:20;101195.33;;;11.42;62.19
62895;BME280;49204;44.916;37.998;2023-03-04T11:44:46;101179.47;;;11.67;61.96
62895;BME280;49204;44.916;37.998;2023-03-04T11:48:00;101165.98;;;12.00;61.43
62895;BME280;49204;44.916;37.998;2023-03-04T11:55:40;101162.98;;;12.65;59.41
62895;BME280;49204;44.916;37.998;2023-03-04T11:58:06;101156.24;;;12.24;59.79
62895;BME280;49204;44.916;37.998;2023-03-04T12:11:09;101168.73;;;10.71;63.50
62895;BME280;49204;44.916;37.998;2023-03-04T12:13:41;101160.52;;;10.54;63.86
62895;BME280;49204;44.916;37.998;2023-03-04T12:16:17;101162.23;;;10.55;64.07
62895;BME280;49204;44.916;37.998;2023-03-04T12:21:13;101175.28;;;10.31;64.55
62895;BME280;49204;44.916;37.998;2023-03-04T13:21:47;101168.61;;;9.58;67.63
62895;BME280;49204;44.916;37.998;2023-03-04T13:24:45;101177.31;;;9.60;67.50
62895;BME280;49204;44.916;37.998;2023-03-04T13:27:49;101173.38;;;9.75;67.43
62895;BME280;49204;44.916;37.998;2023-03-04T13:35:53;101167.79;;;9.56;67.26
62895;BME280;49204;44.916;37.998;2023-03-04T13:38:30;101163.61;;;9.49;67.37
62895;BME280;49204;44.916;37.998;2023-03-04T13:41:06;101162.97;;;9.41;67.52
62895;BME280;49204;44.916;37.998;2023-03-04T13:43:39;101174.55;;;9.34;67.72
62895;BME280;49204;44.916;37.998;2023-03-04T13:54:15;101151.53;;;9.09;68.23
62895;BME280;49204;44.916;37.998;2023-03-04T13:57:35;101147.16;;;9.10;68.29
62895;BME280;49204;44.916;37.998;2023-03-04T13:59:27;101135.45;;;9.05;68.43
62895;BME280;49204;44.916;37.998;2023-03-04T14:02:11;101140.38;;;9.01;68.34
62895;BME280;49204;44.916;37.998;2023-03-04T14:04:55;101142.19;;;8.99;68.33
62895;BME280;49204;44.916;37.998;2023-03-04T14:09:55;101132.72;;;9.10;68.15
62895;BME280;49204;44.916;37.998;2023-03-04T14:12:31;101121.22;;;9.14;67.96
62895;BME280;49204;44.916;37.998;2023-03-04T14:14:58;101129.30;;;9.06;67.89
62895;BME280;49204;44.916;37.998;2023-03-04T14:17:29;101134.87;;;8.94;68.01
62895;BME280;49204;44.916;37.998;2023-03-04T14:20:00;101133.13;;;8.93;68.02
62895;BME280;49204;44.916;37.998;2023-03-04T14:22:36;101136.35;;;8.87;68.00
62895;BME280;49204;44.916;37.998;2023-03-04T14:27:37;101123.52;;;8.75;68.31
62895;BME280;49204;44.916;37.998;2023-03-04T14:30:17;101129.73;;;8.73;68.24
62895;BME280;49204;44.916;37.998;2023-03-04T14:32:40;101134.19;;;8.69;68.29
62895;BME280;49204;44.916;37.998;2023-03-04T14:35:30;101109.28;;;8.67;68.36
62895;BME280;49204;44.916;37.998;2023-03-04T14:38:02;101126.02;;;8.63;68.33
62895;BME280;49204;44.916;37.998;2023-03-04T14:40:37;101124.80;;;8.59;68.34
62895;BME280;49204;44.916;37.998;2023-03-04T14:43:09;101123.20;;;8.53;68.53
62895;BME280;49204;44.916;37.998;2023-03-04T14:45:36;101118.08;;;8.48;68.69
62895;BME280;49204;44.916;37.998;2023-03-04T14:48:07;101120.77;;;8.45;68.87
62895;BME280;49204;44.916;37.998;2023-03-04T14:50:36;101122.47;;;8.46;68.86
62895;BME280;49204;44.916;37.998;2023-03-04T14:55:36;101133.06;;;8.43;69.35
62895;BME280;49204;44.916;37.998;2023-03-04T14:58:20;101113.87;;;8.40;69.48
62895;BME280;49204;44.916;37.998;2023-03-04T15:00:40;101122.20;;;8.39;69.55
62895;BME280;49204;44.916;37.998;2023-03-04T15:03:29;101110.45;;;8.36;69.81